Bellport, New York
Current Conditions -  °F | °C
As of 10:56 PM on Friday 28 Nov 2014 (Local Time) from KHWV Reporting Station
Clear Clear  
Wind Chill: 21°   Ceiling: Unl
Heat Index: 26°   Visibility: 10mi
Dew Point: 16°   Wind: 5mph
Humidity: 66%   Direction: 300°WNW
Pressure: 30.27"   Gusts: NA
Location:  40.76°N, 72.94°W
Report Text: KHWV 290356Z AUTO 30004KT 10SM CLR M03/M09 A3027 RMK AO2 SLP252 T10331089 TSNO
Loading
Personal Weather Stations






























Interactive Weather Map New forecast layout! Learn more

10-Day Weather Forecast

Advertisements
Track Severe Weather on mobile